createdAt,value
2022-07-29T00:00:45.772Z,99729.17
2022-07-29T00:01:45.739Z,99724.2
2022-07-29T00:02:45.778Z,99728.78
2022-07-29T00:03:45.842Z,99723.72
2022-07-29T00:04:45.832Z,99727.77
2022-07-29T00:05:45.821Z,99725.25
2022-07-29T00:06:45.910Z,99727.47
2022-07-29T00:07:46.128Z,99730.3
2022-07-29T00:08:45.871Z,99733.2
2022-07-29T00:09:51.620Z,99731.59
2022-07-29T00:10:49.394Z,99736.53
2022-07-29T00:11:49.687Z,99734.63
2022-07-29T00:12:49.409Z,99732.37
2022-07-29T00:13:51.600Z,99731.53
2022-07-29T00:14:49.706Z,99737.38
2022-07-29T00:15:49.513Z,99735.69
2022-07-29T00:16:49.597Z,99737.16
2022-07-29T00:17:49.495Z,99733.94
2022-07-29T00:18:49.583Z,99734.23
2022-07-29T00:19:49.618Z,99734.13
2022-07-29T00:20:49.619Z,99737.55
2022-07-29T00:21:49.574Z,99739.21
2022-07-29T00:22:49.603Z,99736.23
2022-07-29T00:23:49.604Z,99737.99
2022-07-29T00:24:49.827Z,99736.8
2022-07-29T00:25:49.610Z,99739.39
2022-07-29T00:26:49.654Z,99735.42
2022-07-29T00:27:49.675Z,99739.95
2022-07-29T00:28:49.700Z,99740.22
2022-07-29T00:29:49.765Z,99738.95
2022-07-29T00:30:49.889Z,99738.39
2022-07-29T00:31:49.910Z,99736.83
2022-07-29T00:32:49.773Z,99731.03
2022-07-29T00:33:49.758Z,99737.41
2022-07-29T00:34:49.653Z,99738.36
2022-07-29T00:35:50.179Z,99742.38
2022-07-29T00:36:49.819Z,99743.33
2022-07-29T00:37:49.879Z,99744.67
2022-07-29T00:38:52.925Z,99746.42
2022-07-29T00:39:50.119Z,99749.02
2022-07-29T00:40:49.839Z,99746.05
2022-07-29T00:41:50.184Z,99746.56
2022-07-29T00:42:51.223Z,99749.66
2022-07-29T00:43:49.973Z,99744.36
2022-07-29T00:44:49.980Z,99745.36
2022-07-29T00:45:50.178Z,99745.73
2022-07-29T00:46:50.165Z,99746.5
2022-07-29T00:47:50.073Z,99744.04
2022-07-29T00:48:50.213Z,99743.99
2022-07-29T00:49:50.006Z,99739.92
2022-07-29T00:50:50.722Z,99741.02
2022-07-29T00:51:50.467Z,99738.72
2022-07-29T00:52:51.149Z,99738.48
2022-07-29T00:53:50.086Z,99740.97
2022-07-29T00:54:50.068Z,99739.55
2022-07-29T00:55:50.207Z,99737.57
2022-07-29T00:56:50.295Z,99738.7
2022-07-29T00:57:50.486Z,99740.69
2022-07-29T00:58:51.623Z,99739.8
2022-07-29T00:59:50.210Z,99738.77
2022-07-29T01:00:50.474Z,99737.59
2022-07-29T01:01:50.247Z,99736.66
2022-07-29T01:02:50.274Z,99738.03
2022-07-29T01:03:50.342Z,99736.94
2022-07-29T01:04:50.510Z,99735.73
2022-07-29T01:05:51.993Z,99739.7
2022-07-29T01:06:50.386Z,99739.39
2022-07-29T01:07:52.161Z,99741.53
2022-07-29T01:08:50.577Z,99740.47
2022-07-29T01:09:51.192Z,99742.23
2022-07-29T01:10:51.742Z,99742.39
2022-07-29T01:11:51.000Z,99739.38
2022-07-29T01:12:52.229Z,99742.97
2022-07-29T01:13:50.602Z,99739.67
2022-07-29T01:14:51.688Z,99748.7
2022-07-29T01:15:57.544Z,99743.42
2022-07-29T01:17:01.034Z,99742.23
2022-07-29T01:30:23.643Z,99742.42
2022-07-29T01:31:25.379Z,99744.06
2022-07-29T01:32:28.664Z,99743.17
2022-07-29T01:33:26.239Z,99743.44
2022-07-29T01:34:28.794Z,99744.73
2022-07-29T01:38:30.191Z,99748.44
2022-07-29T01:41:35.215Z,99754.8
2022-07-29T01:46:45.410Z,99754.99
2022-07-29T01:48:50.257Z,99758.09
2022-07-29T01:49:48.789Z,99755.66
2022-07-29T01:50:57.780Z,99756.66
2022-07-29T01:52:55.306Z,99758.34
2022-07-29T01:54:58.236Z,99753.36
2022-07-29T01:55:58.250Z,99762.48
2022-07-29T01:56:57.340Z,99759.69
2022-07-29T01:57:57.331Z,99759.39
2022-07-29T01:58:57.293Z,99754.12
2022-07-29T01:59:57.353Z,99762.17
2022-07-29T02:00:57.411Z,99755.56
2022-07-29T02:01:58.305Z,99759.87
2022-07-29T02:02:56.940Z,99762.55
2022-07-29T02:03:57.775Z,99757.75
2022-07-29T02:04:57.462Z,99761.92
2022-07-29T02:05:57.714Z,99762.22
2022-07-29T02:06:57.963Z,99762.12
2022-07-29T02:07:57.086Z,99761.03
2022-07-29T02:08:57.314Z,99764.22
2022-07-29T02:09:57.992Z,99763.48
2022-07-29T02:10:56.432Z,99764.29
2022-07-29T02:11:57.186Z,99765.27
2022-07-29T02:12:58.058Z,99764.97
2022-07-29T02:13:57.154Z,99763.75
2022-07-29T02:15:00.684Z,99759.86
2022-07-29T02:15:58.419Z,99762.62
2022-07-29T02:16:59.335Z,99760.48
2022-07-29T02:18:58.142Z,99763.22
2022-07-29T02:20:00.315Z,99763.03
2022-07-29T02:20:59.793Z,99761.46
2022-07-29T02:21:58.710Z,99762.03
2022-07-29T02:22:58.253Z,99766.34
2022-07-29T02:24:00.485Z,99766.7
2022-07-29T02:24:59.121Z,99766.58
2022-07-29T02:25:58.872Z,99767.02
2022-07-29T02:27:00.224Z,99768.3
2022-07-29T02:27:59.693Z,99765.56
2022-07-29T02:28:58.424Z,99769.42
2022-07-29T02:29:59.470Z,99768.13
2022-07-29T02:30:59.568Z,99769.11
2022-07-29T02:31:59.301Z,99769.98
2022-07-29T02:32:58.995Z,99768.82
2022-07-29T02:33:58.289Z,99770.75
2022-07-29T02:34:59.550Z,99769.81
2022-07-29T02:35:59.233Z,99772
2022-07-29T02:36:57.807Z,99774.22
2022-07-29T02:37:58.417Z,99775.84
2022-07-29T02:38:58.890Z,99777.91
2022-07-29T02:39:59.071Z,99777.23
2022-07-29T02:40:59.411Z,99779.34
2022-07-29T02:42:04.727Z,99777.84
2022-07-29T02:43:02.713Z,99777.12
2022-07-29T02:45:05.820Z,99783.46
2022-07-29T02:46:06.523Z,99782.45
2022-07-29T02:48:11.299Z,99784.27
2022-07-29T02:49:11.046Z,99784.38
2022-07-29T02:51:43.419Z,99785.37
2022-07-29T02:52:19.493Z,99784.87
2022-07-29T02:53:19.003Z,99784.03
2022-07-29T02:54:21.286Z,99788.02
2022-07-29T02:55:20.441Z,99789.34
2022-07-29T02:56:22.099Z,99791.53
2022-07-29T02:57:23.900Z,99791.7
2022-07-29T02:59:25.860Z,99790.59
2022-07-29T03:00:27.997Z,99788.04
2022-07-29T03:01:26.595Z,99792.46
2022-07-29T03:02:26.721Z,99796.47
2022-07-29T03:03:26.585Z,99798.09
2022-07-29T03:04:26.974Z,99799.47
2022-07-29T03:05:25.388Z,99800.38
2022-07-29T03:06:28.823Z,99800.67
2022-07-29T03:07:25.602Z,99800.83
2022-07-29T03:08:25.777Z,99799.47
2022-07-29T03:09:25.785Z,99800.84
2022-07-29T03:10:28.341Z,99804.05
2022-07-29T03:11:45.867Z,99801.72
2022-07-29T03:12:27.695Z,99800.06
2022-07-29T03:13:28.298Z,99797.59
2022-07-29T03:14:27.405Z,99805.12
2022-07-29T03:15:28.014Z,99799.66
2022-07-29T03:16:27.212Z,99796.97
2022-07-29T03:17:27.462Z,99802.78
2022-07-29T03:18:27.359Z,99802.3
2022-07-29T03:19:27.655Z,99804.71
2022-07-29T03:20:27.313Z,99805.2
2022-07-29T03:21:27.157Z,99802.38
2022-07-29T03:22:27.269Z,99799.97
2022-07-29T03:23:27.162Z,99805.3
2022-07-29T03:24:30.556Z,99804.77
2022-07-29T03:25:29.555Z,99806.71
2022-07-29T03:26:29.785Z,99808.97
2022-07-29T03:27:29.962Z,99807.32
2022-07-29T03:28:30.365Z,99808.08
2022-07-29T03:29:34.034Z,99814.12
2022-07-29T03:30:30.781Z,99813.03
2022-07-29T03:31:30.964Z,99809.74
2022-07-29T03:32:30.799Z,99813.43
2022-07-29T03:33:30.872Z,99813.36
2022-07-29T03:34:30.796Z,99812.31
2022-07-29T03:35:30.718Z,99817.36
2022-07-29T03:36:30.878Z,99815.92
2022-07-29T03:37:30.931Z,99815.71
2022-07-29T03:38:34.906Z,99815.66
2022-07-29T03:39:34.185Z,99817.06
2022-07-29T03:41:33.896Z,99813.81
2022-07-29T03:42:34.705Z,99816.41
2022-07-29T03:43:35.629Z,99816.95
2022-07-29T03:44:33.753Z,99814.89
2022-07-29T03:45:34.581Z,99815.45
2022-07-29T03:46:34.835Z,99818.81
2022-07-29T03:47:43.520Z,99816.02
2022-07-29T03:48:40.138Z,99819.56
2022-07-29T03:49:38.356Z,99824
2022-07-29T03:50:37.593Z,99822.39
2022-07-29T03:51:37.801Z,99814.86
2022-07-29T03:52:37.714Z,99822.78
2022-07-29T03:53:37.632Z,99821.4
2022-07-29T03:54:37.726Z,99820.72
2022-07-29T03:55:39.009Z,99824.53
2022-07-29T03:56:42.825Z,99822.72
2022-07-29T03:57:40.803Z,99819.2
2022-07-29T03:58:40.006Z,99822.97
2022-07-29T03:59:40.425Z,99821.14
2022-07-29T04:00:40.608Z,99827.7
2022-07-29T04:01:40.632Z,99828.84
2022-07-29T04:02:40.700Z,99826.14
2022-07-29T04:03:40.270Z,99826.27
2022-07-29T04:04:39.941Z,99824.67
2022-07-29T04:05:40.145Z,99828.36
2022-07-29T04:06:44.633Z,99824.94
2022-07-29T04:07:48.790Z,99825.96
2022-07-29T04:08:45.791Z,99834.3
2022-07-29T04:09:45.735Z,99829.36
2022-07-29T04:10:45.788Z,99834.1
2022-07-29T04:12:02.072Z,99832.72
2022-07-29T04:12:50.890Z,99836.5
2022-07-29T04:13:50.680Z,99838.27
2022-07-29T04:14:50.740Z,99834.95
2022-07-29T04:15:51.285Z,99831.82
2022-07-29T04:16:50.707Z,99836.73
2022-07-29T04:17:51.171Z,99832.75
2022-07-29T04:18:50.762Z,99836.28
2022-07-29T04:19:50.736Z,99836.62
2022-07-29T04:20:50.877Z,99837.01
2022-07-29T04:21:50.764Z,99841.07
2022-07-29T04:22:50.830Z,99839.52
2022-07-29T04:23:52.990Z,99839.53
2022-07-29T04:24:51.125Z,99843.22
2022-07-29T04:25:51.181Z,99838.58
2022-07-29T04:26:51.065Z,99841.38
2022-07-29T04:27:51.031Z,99846.09
2022-07-29T04:28:51.066Z,99844.31
2022-07-29T04:29:56.843Z,99843.66
2022-07-29T04:30:54.286Z,99846.09
2022-07-29T04:31:54.199Z,99847.2
2022-07-29T04:32:54.354Z,99850.02
2022-07-29T04:33:54.355Z,99846.91
2022-07-29T04:34:54.293Z,99843.03
2022-07-29T04:35:55.129Z,99845.42
2022-07-29T04:36:55.783Z,99846.58
2022-07-29T04:37:54.557Z,99844.26
2022-07-29T04:38:54.360Z,99851.08
2022-07-29T04:39:54.570Z,99852.75
2022-07-29T04:40:54.633Z,99855.55
2022-07-29T04:41:54.988Z,99853.39
2022-07-29T04:42:55.040Z,99850.33
2022-07-29T04:43:54.524Z,99851.95
2022-07-29T04:44:54.343Z,99850.59
2022-07-29T04:45:54.319Z,99856.9
2022-07-29T04:46:54.289Z,99853.01
2022-07-29T04:47:54.379Z,99856.97
2022-07-29T04:48:54.449Z,99858.7
2022-07-29T04:49:54.372Z,99854.41
2022-07-29T04:50:54.334Z,99854.28
2022-07-29T04:51:54.419Z,99850.29
2022-07-29T04:52:54.615Z,99854.2
2022-07-29T04:53:54.373Z,99853.77
2022-07-29T04:54:54.588Z,99850.26
2022-07-29T04:55:54.503Z,99851.16
2022-07-29T04:56:54.492Z,99849.62
2022-07-29T04:57:54.501Z,99853.26
2022-07-29T04:58:54.444Z,99854.02
2022-07-29T04:59:54.563Z,99851.12
2022-07-29T05:00:54.646Z,99854.89
2022-07-29T05:01:54.627Z,99853.77
2022-07-29T05:02:54.592Z,99858.88
2022-07-29T05:03:59.848Z,99857.39
2022-07-29T05:04:57.428Z,99855.66
2022-07-29T05:05:57.400Z,99861.08
2022-07-29T05:06:57.543Z,99858.17
2022-07-29T05:07:57.417Z,99861.26
2022-07-29T05:08:57.566Z,99864.44
2022-07-29T05:09:57.516Z,99862.41
2022-07-29T05:10:57.473Z,99864.88
2022-07-29T05:11:57.586Z,99865.14
2022-07-29T05:12:57.511Z,99860.25
2022-07-29T05:13:57.469Z,99864.33
2022-07-29T05:14:57.525Z,99862.78
2022-07-29T05:15:58.026Z,99862.77
2022-07-29T05:16:57.539Z,99864.41
2022-07-29T05:17:57.589Z,99866.47
2022-07-29T05:18:57.601Z,99863.57
2022-07-29T05:19:57.636Z,99864.55
2022-07-29T05:20:57.618Z,99857.42
2022-07-29T05:21:57.530Z,99860.31
2022-07-29T05:22:58.810Z,99861.91
2022-07-29T05:23:57.816Z,99865.52
2022-07-29T05:24:57.736Z,99857.17
2022-07-29T05:25:57.728Z,99864.45
2022-07-29T05:26:57.710Z,99864.94
2022-07-29T05:27:58.294Z,99860.16
2022-07-29T05:28:57.925Z,99853.34
2022-07-29T05:29:57.762Z,99858.41
2022-07-29T05:30:57.815Z,99866.72
2022-07-29T05:31:57.706Z,99858.64
2022-07-29T05:32:57.734Z,99862.11
2022-07-29T05:33:57.756Z,99857.56
2022-07-29T05:34:57.745Z,99862.03
2022-07-29T05:36:00.575Z,99864.23
2022-07-29T05:36:58.630Z,99863.04
2022-07-29T05:37:58.159Z,99864.16
2022-07-29T05:38:58.119Z,99863.95
2022-07-29T05:39:59.087Z,99862.19
2022-07-29T05:40:59.417Z,99861.29
2022-07-29T05:41:58.200Z,99867.61
2022-07-29T05:42:58.196Z,99864.54
2022-07-29T05:43:58.372Z,99863.73
2022-07-29T05:44:58.235Z,99862.2
2022-07-29T05:45:58.588Z,99864.44
2022-07-29T05:46:58.299Z,99864.91
2022-07-29T05:47:58.307Z,99866.55
2022-07-29T05:48:58.315Z,99869.78
2022-07-29T05:49:58.396Z,99869.33
2022-07-29T05:50:58.360Z,99872.8
2022-07-29T05:51:58.486Z,99871.34
2022-07-29T05:52:58.362Z,99870.47
2022-07-29T05:53:58.262Z,99869.86
2022-07-29T05:54:58.388Z,99872.61
2022-07-29T05:55:58.366Z,99880.61
2022-07-29T05:56:58.482Z,99876.24
2022-07-29T05:57:58.396Z,99872.36
2022-07-29T05:58:58.459Z,99874.42
2022-07-29T05:59:58.480Z,99873.37
2022-07-29T06:00:58.694Z,99869.04
2022-07-29T06:01:58.857Z,99875.03
2022-07-29T06:02:58.488Z,99872.3
2022-07-29T06:03:58.595Z,99882.97
2022-07-29T06:04:58.899Z,99875.8
2022-07-29T06:05:58.586Z,99876.03
2022-07-29T06:06:58.564Z,99875.91
2022-07-29T06:07:58.750Z,99877.95
2022-07-29T06:08:58.504Z,99876.62
2022-07-29T06:09:58.567Z,99870.22
2022-07-29T06:10:58.592Z,99868.91
2022-07-29T06:11:58.607Z,99874.73
2022-07-29T06:12:58.638Z,99872.49
2022-07-29T06:13:58.625Z,99869.07
2022-07-29T06:14:58.729Z,99870.85
2022-07-29T06:15:59.438Z,99866.23
2022-07-29T06:16:58.676Z,99873.48
2022-07-29T06:17:59.038Z,99869.3
2022-07-29T06:18:58.689Z,99869.05
2022-07-29T06:19:58.750Z,99869.58
2022-07-29T06:20:58.625Z,99865.31
2022-07-29T06:21:59.014Z,99870.95
2022-07-29T06:22:58.963Z,99868.52
2022-07-29T06:23:58.770Z,99873.39
2022-07-29T06:24:58.871Z,99871.67
2022-07-29T06:25:58.743Z,99868.73
2022-07-29T06:26:58.766Z,99879.42
2022-07-29T06:27:59.008Z,99877.22
2022-07-29T06:28:58.778Z,99877.39
2022-07-29T06:29:58.957Z,99875.52
2022-07-29T06:30:59.034Z,99877.02
2022-07-29T06:31:58.778Z,99872.28
2022-07-29T06:32:59.109Z,99876.19
2022-07-29T06:33:58.882Z,99875.34
2022-07-29T06:35:12.045Z,99882.66
2022-07-29T06:36:00.307Z,99874.88
2022-07-29T06:37:00.398Z,99869.33
2022-07-29T06:38:00.405Z,99880.5
2022-07-29T06:39:00.375Z,99879.38
2022-07-29T06:40:00.403Z,99881.62
2022-07-29T06:41:01.013Z,99874.73
2022-07-29T06:42:00.440Z,99882.2
2022-07-29T06:43:00.539Z,99877.41
2022-07-29T06:44:00.442Z,99878.94
2022-07-29T06:45:00.476Z,99890.25
2022-07-29T06:46:01.444Z,99888.09
2022-07-29T06:47:01.264Z,99890.59
2022-07-29T06:48:00.498Z,99885.83
2022-07-29T06:49:00.690Z,99881.08
2022-07-29T06:50:00.655Z,99885.14
2022-07-29T06:51:01.142Z,99887.28
2022-07-29T06:52:00.662Z,99893.17
2022-07-29T06:53:00.637Z,99884.93
2022-07-29T06:54:02.762Z,99889.3
2022-07-29T06:55:05.434Z,99890.32
2022-07-29T06:56:05.827Z,99886.97
2022-07-29T06:57:04.995Z,99889.97
2022-07-29T06:58:04.975Z,99892.8
2022-07-29T06:59:05.497Z,99890.34
2022-07-29T07:00:05.509Z,99895.11
2022-07-29T07:01:06.038Z,99889.04
2022-07-29T07:02:05.216Z,99890.79
2022-07-29T07:03:04.997Z,99892.89
2022-07-29T07:04:05.031Z,99894.84
2022-07-29T07:05:05.853Z,99896.36
2022-07-29T07:06:05.076Z,99893.03
2022-07-29T07:07:04.975Z,99897.88
2022-07-29T07:08:05.382Z,99896.23
2022-07-29T07:09:05.215Z,99896.97
2022-07-29T07:10:05.511Z,99895.09
2022-07-29T07:11:05.108Z,99896.45
2022-07-29T07:12:05.602Z,99903.59
2022-07-29T07:13:05.522Z,99891.86
2022-07-29T07:14:05.234Z,99899.27
2022-07-29T07:15:05.652Z,99895.98
2022-07-29T07:16:05.454Z,99888.47
2022-07-29T07:17:05.227Z,99893.65
2022-07-29T07:18:06.107Z,99893.35
2022-07-29T07:19:05.166Z,99895.34
2022-07-29T07:20:06.287Z,99888.91
2022-07-29T07:21:05.254Z,99898.36
2022-07-29T07:22:05.200Z,99885.84
2022-07-29T07:23:05.190Z,99891.48
2022-07-29T07:24:05.703Z,99899.84
2022-07-29T07:25:05.573Z,99889.62
2022-07-29T07:26:05.263Z,99895.06
2022-07-29T07:27:05.287Z,99897.99
2022-07-29T07:28:05.281Z,99898.29
2022-07-29T07:29:05.356Z,99891.09
2022-07-29T07:30:06.399Z,99891.64
2022-07-29T07:31:06.017Z,99893.41
2022-07-29T07:32:05.744Z,99896.07
2022-07-29T07:33:05.414Z,99900.35
2022-07-29T07:34:05.527Z,99891.12
2022-07-29T07:35:06.397Z,99898.99
2022-07-29T07:36:05.653Z,99894.27
2022-07-29T07:37:05.649Z,99897.87
2022-07-29T07:38:05.391Z,99898.3
2022-07-29T07:39:05.509Z,99899.5
2022-07-29T07:40:05.985Z,99897.89
2022-07-29T07:41:05.475Z,99895.06
2022-07-29T07:42:05.755Z,99891.19
2022-07-29T07:43:05.711Z,99899.52
2022-07-29T07:44:05.480Z,99897.94
2022-07-29T07:45:13.495Z,99903.31
2022-07-29T07:46:10.321Z,99899.49
2022-07-29T07:47:12.517Z,99896.15
2022-07-29T07:48:10.277Z,99897
2022-07-29T07:49:10.336Z,99895.7
2022-07-29T07:50:16.337Z,99896.83
2022-07-29T07:51:15.209Z,99892.66
2022-07-29T07:52:16.678Z,99899.94
2022-07-29T07:53:15.078Z,99900.95
2022-07-29T07:54:15.576Z,99901.64
2022-07-29T07:55:15.235Z,99903.32
2022-07-29T07:56:16.082Z,99895.59
2022-07-29T07:57:15.781Z,99894.92
2022-07-29T07:58:15.281Z,99900.22
2022-07-29T07:59:15.477Z,99897.81
2022-07-29T08:00:16.287Z,99904.83
2022-07-29T08:01:15.242Z,99900.84
2022-07-29T08:02:15.546Z,99901.28
2022-07-29T08:03:16.600Z,99899.34
2022-07-29T08:04:15.643Z,99900.45
2022-07-29T08:05:15.318Z,99899.81
2022-07-29T08:06:15.370Z,99905.28
2022-07-29T08:07:15.384Z,99902.39
2022-07-29T08:08:15.385Z,99909.62
2022-07-29T08:09:28.654Z,99905.11
2022-07-29T08:10:17.673Z,99906.14
2022-07-29T08:11:17.198Z,99906.56
2022-07-29T08:12:17.182Z,99912.52
2022-07-29T08:13:17.054Z,99913.48
2022-07-29T08:14:17.549Z,99918.53
2022-07-29T08:15:17.069Z,99915.39
2022-07-29T08:16:17.342Z,99910.25
2022-07-29T08:17:17.110Z,99921.84
2022-07-29T08:18:17.125Z,99926.05
2022-07-29T08:19:17.241Z,99920.53
2022-07-29T08:20:17.211Z,99924.06
2022-07-29T08:21:17.318Z,99925.47
2022-07-29T08:22:17.219Z,99928.08
2022-07-29T08:23:17.164Z,99927.54
2022-07-29T08:24:17.179Z,99922.3
2022-07-29T08:25:17.145Z,99923.08
2022-07-29T08:26:17.284Z,99917.12
2022-07-29T08:27:42.086Z,99921.11
2022-07-29T08:28:18.747Z,99919.84
2022-07-29T08:29:20.146Z,99919.83
2022-07-29T08:30:18.939Z,99924.2
2022-07-29T08:31:19.052Z,99922.66
2022-07-29T08:32:36.944Z,99926.69
2022-07-29T08:33:20.232Z,99925.41
2022-07-29T08:34:21.562Z,99919.95
2022-07-29T08:35:25.052Z,99924.84
2022-07-29T08:36:24.327Z,99928.62
2022-07-29T08:37:24.394Z,99935.94
2022-07-29T08:38:24.305Z,99932.48
2022-07-29T08:39:24.988Z,99934.62
2022-07-29T08:40:31.877Z,99937.42
2022-07-29T08:41:29.245Z,99938.8
2022-07-29T08:42:29.149Z,99929.42
2022-07-29T08:43:29.523Z,99935.64
2022-07-29T08:44:30.736Z,99940.69
2022-07-29T08:45:30.625Z,99943.9
2022-07-29T08:46:29.290Z,99935.5
2022-07-29T08:47:29.338Z,99932.77
2022-07-29T08:48:29.341Z,99931.05
2022-07-29T08:49:29.451Z,99931.48
2022-07-29T08:50:29.550Z,99934.18
2022-07-29T08:51:30.734Z,99931.92
2022-07-29T08:52:33.470Z,99927.02
2022-07-29T08:53:30.413Z,99933.66
2022-07-29T08:54:30.275Z,99934.5
2022-07-29T08:55:31.239Z,99940.92
2022-07-29T08:56:31.088Z,99935.16
2022-07-29T08:57:31.803Z,99937.05
2022-07-29T08:58:36.835Z,99935.27
2022-07-29T08:59:35.234Z,99934.19
2022-07-29T09:00:34.080Z,99936.28
2022-07-29T09:01:36.048Z,99931.77
2022-07-29T09:02:36.499Z,99933.73
2022-07-29T09:03:35.467Z,99940.23
2022-07-29T09:04:35.404Z,99939.34
2022-07-29T09:05:38.179Z,99935.93
2022-07-29T09:06:38.211Z,99932.25
2022-07-29T09:07:37.335Z,99938.11
2022-07-29T09:08:37.123Z,99936.78
2022-07-29T09:09:37.313Z,99939.05
2022-07-29T09:10:37.335Z,99938.59
2022-07-29T09:11:37.712Z,99930.11
2022-07-29T09:12:38.157Z,99927.8
2022-07-29T09:13:37.204Z,99933.66
2022-07-29T09:14:37.286Z,99939.48
2022-07-29T09:15:37.381Z,99937.09
2022-07-29T09:17:41.676Z,99936.95
2022-07-29T09:18:41.877Z,99936.67
2022-07-29T09:19:45.519Z,99931.64
2022-07-29T09:20:52.636Z,99932.84
2022-07-29T09:21:44.759Z,99932.5
2022-07-29T09:22:45.104Z,99935.19
2022-07-29T09:24:48.583Z,99938.84
2022-07-29T09:25:48.634Z,99934.59
2022-07-29T09:26:48.602Z,99935.95
2022-07-29T09:27:51.183Z,99933.89
2022-07-29T09:28:48.699Z,99934.38
2022-07-29T09:30:56.798Z,99932.8
2022-07-29T09:31:54.216Z,99940.53
2022-07-29T09:32:56.981Z,99933.81
2022-07-29T09:33:53.405Z,99932.77
2022-07-29T09:36:05.887Z,99931.39
2022-07-29T09:37:03.427Z,99939.72
2022-07-29T09:38:12.408Z,99939.7
2022-07-29T09:39:04.516Z,99935.57
2022-07-29T09:40:12.077Z,99946.05
2022-07-29T09:41:09.075Z,99940.72
2022-07-29T09:42:09.117Z,99931.42
2022-07-29T09:43:12.629Z,99939.23
2022-07-29T09:44:09.674Z,99948.97
2022-07-29T09:45:10.635Z,99930.14
2022-07-29T09:46:13.252Z,99938.3
2022-07-29T09:47:10.422Z,99932.17
2022-07-29T09:49:13.989Z,99934.34
2022-07-29T09:50:12.610Z,99934.05
2022-07-29T09:51:25.517Z,99934.27
2022-07-29T09:52:15.346Z,99926
2022-07-29T09:55:19.772Z,99929.53
2022-07-29T09:56:19.031Z,99922.75
2022-07-29T09:57:30.552Z,99929.39
2022-07-29T09:58:23.412Z,99932.61
2022-07-29T09:59:22.826Z,99927.55
2022-07-29T10:00:22.847Z,99927.88
2022-07-29T10:01:29.295Z,99926.39
2022-07-29T10:02:30.173Z,99924.98
2022-07-29T10:03:26.890Z,99920.73
2022-07-29T10:05:36.229Z,99927.81
2022-07-29T10:06:33.478Z,99918.41
2022-07-29T10:08:35.917Z,99935.78
2022-07-29T10:09:36.433Z,99920.33
2022-07-29T10:10:36.604Z,99923.8
2022-07-29T10:11:48.984Z,99926
2022-07-29T10:12:49.090Z,99925.41
2022-07-29T10:13:42.017Z,99919.08
2022-07-29T10:14:41.841Z,99921.22
2022-07-29T10:15:42.159Z,99923.78
2022-07-29T10:16:41.364Z,99922.09
2022-07-29T10:17:41.984Z,99926.85
2022-07-29T10:18:42.051Z,99923.03
2022-07-29T10:19:41.195Z,99920.34
2022-07-29T10:20:41.070Z,99922.02
2022-07-29T10:21:41.246Z,99923.66
2022-07-29T10:22:52.974Z,99932.77
2022-07-29T10:23:47.075Z,99920.34
2022-07-29T10:24:45.877Z,99926.31
2022-07-29T10:25:46.851Z,99920.75
2022-07-29T10:26:46.067Z,99919.94
2022-07-29T10:27:46.508Z,99931.27
2022-07-29T10:28:46.080Z,99926.16
2022-07-29T10:29:45.851Z,99925.09
2022-07-29T10:30:46.956Z,99928.48
2022-07-29T10:39:24.571Z,99930.9
2022-07-29T10:42:19.898Z,99927.28
2022-07-29T10:44:23.290Z,99910.95
2022-07-29T10:45:17.848Z,99923.39
2022-07-29T10:46:15.832Z,99915.03
2022-07-29T10:47:25.078Z,99918.45
2022-07-29T10:48:17.087Z,99919
2022-07-29T10:49:24.397Z,99911.09
2022-07-29T10:50:21.791Z,99913.97
2022-07-29T10:51:21.853Z,99911.66
2022-07-29T10:52:26.665Z,99908.45
2022-07-29T10:53:22.593Z,99912.08
2022-07-29T10:56:32.764Z,99906.34
2022-07-29T10:57:54.152Z,99909.33
2022-07-29T10:58:32.158Z,99907.89
2022-07-29T10:59:36.233Z,99900.66
2022-07-29T11:00:33.298Z,99905.19
2022-07-29T11:01:37.534Z,99905.92
2022-07-29T11:03:49.163Z,99910.92
2022-07-29T11:05:54.175Z,99900.89
2022-07-29T11:11:58.976Z,99912.62
2022-07-29T11:12:58.518Z,99903.69
2022-07-29T11:13:58.517Z,99896.88
2022-07-29T11:15:01.517Z,99907.82
2022-07-29T11:15:58.806Z,99909.99
2022-07-29T11:16:59.850Z,99912.41
2022-07-29T11:18:07.750Z,99913.33
2022-07-29T11:22:10.733Z,99913.78
2022-07-29T11:24:18.609Z,99914.19
2022-07-29T11:25:17.725Z,99912.14
2022-07-29T11:26:20.478Z,99917.33
2022-07-29T11:27:20.466Z,99913.61
2022-07-29T11:28:22.407Z,99910.17
2022-07-29T11:29:23.073Z,99918.59
2022-07-29T11:30:22.147Z,99919.53
2022-07-29T11:31:35.657Z,99917.25
2022-07-29T11:32:23.773Z,99919.58
2022-07-29T11:33:54.514Z,99920.64
2022-07-29T11:35:38.395Z,99923.83
2022-07-29T11:36:31.741Z,99922.73
2022-07-29T11:37:31.743Z,99913.94
2022-07-29T11:38:32.283Z,99921.02
2022-07-29T11:39:37.192Z,99918.33
2022-07-29T11:40:34.760Z,99925.43
2022-07-29T11:41:34.750Z,99914.97
2022-07-29T11:42:41.810Z,99919.71
2022-07-29T11:43:50.598Z,99912.53
2022-07-29T11:47:47.847Z,99909.09
2022-07-29T11:48:44.551Z,99912.61
2022-07-29T11:49:45.396Z,99920.45
2022-07-29T11:50:45.636Z,99912.51
2022-07-29T11:51:51.300Z,99917.99
2022-07-29T11:52:50.068Z,99912.3
2022-07-29T11:53:48.468Z,99913.28
2022-07-29T11:54:58.555Z,99914.25
2022-07-29T11:55:55.786Z,99906.28
2022-07-29T11:56:52.719Z,99916.73
2022-07-29T11:58:03.816Z,99913.48
2022-07-29T12:00:04.606Z,99915.09
2022-07-29T12:01:04.692Z,99918.59
2022-07-29T12:02:33.165Z,99918.61
2022-07-29T12:03:04.672Z,99921.73
2022-07-29T12:04:03.983Z,99913.62
2022-07-29T12:05:10.447Z,99914.52
2022-07-29T12:07:15.297Z,99920.25
2022-07-29T12:09:16.504Z,99919.88
2022-07-29T12:10:19.977Z,99918.69
2022-07-29T12:11:21.347Z,99915.02
2022-07-29T12:12:19.286Z,99917.67
2022-07-29T12:13:20.447Z,99911.15
2022-07-29T12:14:31.984Z,99906.52
2022-07-29T12:15:24.220Z,99913.73
2022-07-29T12:16:35.818Z,99909.45
2022-07-29T12:17:32.715Z,99908.95
2022-07-29T12:18:30.260Z,99914.64
2022-07-29T12:19:42.649Z,99919.59
2022-07-29T12:20:31.770Z,99919.22
2022-07-29T12:23:37.450Z,99919.19
2022-07-29T12:25:43.278Z,99918.16
2022-07-29T12:27:46.508Z,99919.44
2022-07-29T12:28:47.073Z,99916.47
2022-07-29T12:29:48.040Z,99918.84
2022-07-29T12:30:47.192Z,99920.86
2022-07-29T12:31:47.224Z,99921.16
2022-07-29T12:32:47.662Z,99920.72
2022-07-29T12:33:52.809Z,99919.95
2022-07-29T12:34:49.484Z,99920.81
2022-07-29T12:36:03.796Z,99925
2022-07-29T12:36:53.668Z,99926.12
2022-07-29T12:37:54.030Z,99919.41
2022-07-29T12:38:53.816Z,99922.17
2022-07-29T12:39:53.738Z,99924.35
2022-07-29T12:40:54.585Z,99927.48
2022-07-29T12:41:54.126Z,99923.36
2022-07-29T12:43:06.572Z,99926.2
2022-07-29T12:43:58.548Z,99926.04
2022-07-29T12:44:58.720Z,99927.11
2022-07-29T12:45:58.832Z,99926.88
2022-07-29T12:47:04.692Z,99929.58
2022-07-29T12:48:04.200Z,99931.16
2022-07-29T12:49:04.140Z,99930.69
2022-07-29T12:50:11.975Z,99929.09
2022-07-29T12:51:04.736Z,99933.44
2022-07-29T12:54:10.472Z,99930.1
2022-07-29T12:55:08.757Z,99932.9
2022-07-29T12:57:20.162Z,99951.01
2022-07-29T12:59:21.722Z,99958.86
2022-07-29T13:00:24.242Z,99960.08
2022-07-29T13:01:21.521Z,99959.48
2022-07-29T13:02:22.418Z,99955.16
2022-07-29T13:03:21.369Z,99963.46
2022-07-29T13:04:28.140Z,99961.68
2022-07-29T13:05:25.038Z,99961.53
2022-07-29T13:06:35.999Z,99953.73
2022-07-29T13:07:54.256Z,99953.36
2022-07-29T13:08:28.337Z,99956.95
2022-07-29T13:09:37.659Z,99955.39
2022-07-29T13:10:29.132Z,99957.5
2022-07-29T13:12:30.739Z,99959.39